createdAt,value
2017-09-26T00:01:15.930Z,47.53
2017-09-26T00:03:43.568Z,48.23
2017-09-26T00:06:11.182Z,49.70
2017-09-26T00:08:39.148Z,51.95
2017-09-26T00:11:06.752Z,49.50
2017-09-26T00:13:35.474Z,47.65
2017-09-26T00:16:03.609Z,44.47
2017-09-26T00:18:31.203Z,46.70
2017-09-26T00:21:00.716Z,45.17
2017-09-26T00:23:28.665Z,47.75
2017-09-26T00:25:56.486Z,43.20
2017-09-26T00:28:24.219Z,46.78
2017-09-26T00:30:52.426Z,48.20
2017-09-26T00:33:20.047Z,52.20
2017-09-26T00:38:23.434Z,46.00
2017-09-26T00:40:52.298Z,51.42
2017-09-26T00:43:21.106Z,45.53
2017-09-26T00:45:48.773Z,44.28
2017-09-26T00:48:17.128Z,52.28
2017-09-26T00:50:44.698Z,51.65
2017-09-26T00:53:13.146Z,49.47
2017-09-26T00:55:41.535Z,49.60
2017-09-26T00:58:09.206Z,44.03
2017-09-26T01:00:38.258Z,50.05
2017-09-26T01:03:07.073Z,47.85
2017-09-26T01:05:57.047Z,46.77
2017-09-26T01:08:24.595Z,46.00
2017-09-26T01:10:52.129Z,49.55
2017-09-26T01:13:20.460Z,50.28
2017-09-26T01:15:48.097Z,60.75
2017-09-26T01:18:15.858Z,47.75
2017-09-26T01:20:43.503Z,53.85
2017-09-26T01:23:11.044Z,47.72
2017-09-26T01:25:38.589Z,55.35
2017-09-26T01:28:06.927Z,50.95
2017-09-26T01:30:34.785Z,46.72
2017-09-26T01:33:03.174Z,53.97
2017-09-26T01:35:30.845Z,53.40
2017-09-26T01:37:58.434Z,57.28
2017-09-26T01:40:26.458Z,56.53
2017-09-26T01:42:55.248Z,52.97
2017-09-26T01:45:22.925Z,52.85
2017-09-26T01:47:50.466Z,52.88
2017-09-26T01:50:18.027Z,51.45
2017-09-26T01:52:45.564Z,56.70
2017-09-26T01:55:13.886Z,53.83
2017-09-26T01:57:45.247Z,55.08
2017-09-26T02:00:12.839Z,52.85
2017-09-26T02:02:41.940Z,49.88
2017-09-26T02:05:11.495Z,51.05
2017-09-26T02:07:39.695Z,51.83
2017-09-26T02:10:07.233Z,60.08
2017-09-26T02:12:34.789Z,53.78
2017-09-26T02:15:02.321Z,56.50
2017-09-26T02:17:30.822Z,54.63
2017-09-26T02:19:59.238Z,55.60
2017-09-26T02:22:27.068Z,54.33
2017-09-26T02:24:55.456Z,57.83
2017-09-26T02:27:23.021Z,48.42
2017-09-26T02:29:51.495Z,52.83
2017-09-26T02:32:20.593Z,56.53
2017-09-26T02:34:48.753Z,59.60
2017-09-26T02:37:16.299Z,53.78
2017-09-26T02:39:45.725Z,55.42
2017-09-26T02:42:15.337Z,53.95
2017-09-26T02:44:42.889Z,55.38
2017-09-26T02:47:10.558Z,57.75
2017-09-26T02:49:38.091Z,56.33
2017-09-26T02:52:05.639Z,60.60
2017-09-26T02:54:35.282Z,59.55
2017-09-26T02:57:03.738Z,56.58
2017-09-26T02:59:31.271Z,55.47
2017-09-26T03:01:58.851Z,57.28
2017-09-26T03:04:26.384Z,61.28
2017-09-26T03:06:53.917Z,55.30
2017-09-26T03:09:21.481Z,54.60
2017-09-26T03:11:50.765Z,50.78
2017-09-26T03:14:19.429Z,51.15
2017-09-26T03:16:46.983Z,52.50
2017-09-26T03:19:14.616Z,52.65
2017-09-26T03:21:42.243Z,56.33
2017-09-26T03:24:09.804Z,53.22
2017-09-26T03:26:37.354Z,57.75
2017-09-26T03:29:05.199Z,62.25
2017-09-26T03:31:34.002Z,52.95
2017-09-26T03:34:02.773Z,51.35
2017-09-26T03:36:30.339Z,57.78
2017-09-26T03:38:58.513Z,58.53
2017-09-26T03:41:26.095Z,58.67
2017-09-26T03:43:53.625Z,58.72
2017-09-26T03:46:21.184Z,57.25
2017-09-26T03:48:48.720Z,55.08
2017-09-26T03:51:17.032Z,51.45
2017-09-26T03:53:44.590Z,56.45
2017-09-26T03:56:12.119Z,51.22
2017-09-26T03:58:39.673Z,48.45
2017-09-26T04:01:07.233Z,56.28
2017-09-26T04:03:35.913Z,52.20
2017-09-26T04:06:05.352Z,49.75
2017-09-26T04:08:32.939Z,52.50
2017-09-26T04:11:00.495Z,60.50
2017-09-26T04:13:28.056Z,55.50
2017-09-26T04:15:55.643Z,53.60
2017-09-26T04:18:23.225Z,54.35
2017-09-26T04:20:51.529Z,53.05
2017-09-26T04:23:19.095Z,54.28
2017-09-26T04:25:47.409Z,52.10
2017-09-26T04:28:16.204Z,54.95
2017-09-26T04:30:44.581Z,52.85
2017-09-26T04:33:12.285Z,52.85
2017-09-26T04:35:39.992Z,57.28
2017-09-26T04:38:07.770Z,56.25
2017-09-26T04:40:35.323Z,59.10
2017-09-26T04:43:02.907Z,62.00
2017-09-26T04:45:30.503Z,59.05
2017-09-26T04:47:58.063Z,57.25
2017-09-26T04:50:25.597Z,69.65
2017-09-26T04:52:53.945Z,65.43
2017-09-26T04:55:21.597Z,61.63
2017-09-26T04:57:50.415Z,59.08
2017-09-26T05:00:17.992Z,55.08
2017-09-26T05:02:46.531Z,60.78
2017-09-26T05:05:15.144Z,69.47
2017-09-26T05:07:42.861Z,62.85
2017-09-26T05:10:11.490Z,55.60
2017-09-26T05:12:40.083Z,55.97
2017-09-26T05:15:08.545Z,58.53
2017-09-26T05:17:37.455Z,56.75
2017-09-26T05:20:06.652Z,53.42
2017-09-26T05:22:35.817Z,57.97
2017-09-26T05:25:05.426Z,65.57
2017-09-26T05:27:34.011Z,52.47
2017-09-26T05:30:03.422Z,67.80
2017-09-26T05:32:32.305Z,60.20
2017-09-26T05:35:03.477Z,61.20
2017-09-26T05:37:32.259Z,63.45
2017-09-26T05:40:01.164Z,70.78
2017-09-26T05:42:29.545Z,64.03
2017-09-26T05:44:57.217Z,66.25
2017-09-26T05:47:25.551Z,68.32
2017-09-26T05:49:53.212Z,62.90
2017-09-26T05:52:20.751Z,63.33
2017-09-26T05:54:48.283Z,58.85
2017-09-26T05:57:17.745Z,54.42
2017-09-26T05:59:46.320Z,53.97
2017-09-26T06:02:14.297Z,54.20
2017-09-26T06:04:43.157Z,53.15
2017-09-26T06:07:10.893Z,52.35
2017-09-26T06:09:38.441Z,52.67
2017-09-26T06:12:08.214Z,53.70
2017-09-26T06:14:35.816Z,55.70
2017-09-26T06:17:04.135Z,52.22
2017-09-26T06:19:32.495Z,49.63
2017-09-26T06:22:00.066Z,45.60
2017-09-26T06:24:27.609Z,42.85
2017-09-26T06:26:55.160Z,44.58
2017-09-26T06:29:22.702Z,50.35
2017-09-26T06:31:51.024Z,44.22
2017-09-26T06:34:18.691Z,43.80
2017-09-26T06:36:46.562Z,40.78
2017-09-26T06:39:14.123Z,42.95
2017-09-26T06:41:41.715Z,36.67
2017-09-26T06:44:10.053Z,43.80
2017-09-26T06:46:37.695Z,35.73
2017-09-26T06:49:06.151Z,40.70
2017-09-26T06:51:35.247Z,34.00
2017-09-26T06:54:02.800Z,29.57
2017-09-26T06:56:30.513Z,30.27
2017-09-26T06:58:58.197Z,29.87
2017-09-26T07:01:26.760Z,28.57
2017-09-26T07:03:54.489Z,34.37
2017-09-26T07:06:23.313Z,33.73
2017-09-26T07:08:50.859Z,30.43
2017-09-26T07:11:18.438Z,35.50
2017-09-26T07:13:46.746Z,32.00
2017-09-26T07:16:15.418Z,34.53
2017-09-26T07:18:43.215Z,30.10
2017-09-26T07:21:11.517Z,23.13
2017-09-26T07:23:39.044Z,31.63
2017-09-26T07:26:08.239Z,31.67
2017-09-26T07:28:38.859Z,32.10
2017-09-26T07:31:06.472Z,31.33
2017-09-26T07:33:34.821Z,32.27
2017-09-26T07:36:03.125Z,34.23
2017-09-26T07:38:31.588Z,32.07
2017-09-26T07:40:59.666Z,30.70
2017-09-26T07:43:27.360Z,31.80
2017-09-26T07:45:54.902Z,29.93
2017-09-26T07:48:24.464Z,36.20
2017-09-26T07:50:53.568Z,25.67
2017-09-26T07:53:22.207Z,25.50
2017-09-26T07:55:50.193Z,26.23
2017-09-26T07:58:19.309Z,26.33
2017-09-26T08:00:48.706Z,28.50
2017-09-26T08:03:17.806Z,28.23
2017-09-26T08:05:48.338Z,29.80
2017-09-26T08:08:17.141Z,29.27
2017-09-26T08:13:18.735Z,22.50
2017-09-26T08:15:46.316Z,22.30
2017-09-26T08:18:13.861Z,21.20
2017-09-26T08:20:41.421Z,20.30
2017-09-26T08:23:08.966Z,21.90
2017-09-26T08:25:37.076Z,23.30
2017-09-26T08:28:04.634Z,22.43
2017-09-26T08:30:32.178Z,26.03
2017-09-26T08:32:59.712Z,27.10
2017-09-26T08:35:28.034Z,24.00
2017-09-26T08:37:56.015Z,20.43
2017-09-26T08:40:23.837Z,21.90
2017-09-26T08:42:51.418Z,20.63
2017-09-26T08:45:18.944Z,23.27
2017-09-26T08:47:47.236Z,21.20
2017-09-26T08:50:14.792Z,18.13
2017-09-26T08:52:42.331Z,17.83
2017-09-26T08:55:10.629Z,17.30
2017-09-26T08:57:38.210Z,16.23
2017-09-26T09:00:06.230Z,15.90
2017-09-26T09:02:33.855Z,16.37
2017-09-26T09:05:01.442Z,16.70
2017-09-26T09:07:28.986Z,15.97
2017-09-26T09:09:56.512Z,17.13
2017-09-26T09:12:24.307Z,16.97
2017-09-26T09:14:51.841Z,18.97
2017-09-26T09:17:19.464Z,15.90
2017-09-26T09:19:47.072Z,18.57
2017-09-26T09:22:16.027Z,16.97
2017-09-26T09:24:44.337Z,16.87
2017-09-26T09:27:11.897Z,14.97
2017-09-26T09:29:39.431Z,16.40
2017-09-26T09:32:08.251Z,17.57
2017-09-26T09:34:35.801Z,16.37
2017-09-26T09:37:03.338Z,16.27
2017-09-26T09:39:31.628Z,16.37
2017-09-26T09:41:59.206Z,18.73
2017-09-26T09:44:26.740Z,15.40
2017-09-26T09:46:54.267Z,15.97
2017-09-26T09:49:21.828Z,17.70
2017-09-26T09:51:49.364Z,17.37
2017-09-26T09:56:50.709Z,15.13
2017-09-26T09:59:18.261Z,13.37
2017-09-26T10:01:45.793Z,16.83
2017-09-26T10:04:14.120Z,17.90
2017-09-26T10:06:41.648Z,18.03
2017-09-26T10:09:09.172Z,18.33
2017-09-26T10:11:36.751Z,20.30
2017-09-26T10:14:05.049Z,24.53
2017-09-26T10:16:32.587Z,22.43
2017-09-26T10:19:02.821Z,20.33
2017-09-26T10:21:30.402Z,22.17
2017-09-26T10:23:57.943Z,21.80
2017-09-26T10:26:25.495Z,21.00
2017-09-26T10:28:53.028Z,21.10
2017-09-26T10:31:21.882Z,24.60
2017-09-26T10:33:49.463Z,20.57
2017-09-26T10:36:17.012Z,22.90
2017-09-26T10:38:44.548Z,19.43
2017-09-26T10:41:12.674Z,19.20
2017-09-26T10:43:41.306Z,18.67
2017-09-26T10:46:08.847Z,15.80
2017-09-26T10:48:36.427Z,17.93
2017-09-26T10:51:03.970Z,18.27
2017-09-26T10:53:31.517Z,21.40
2017-09-26T10:55:59.127Z,22.93
2017-09-26T10:58:26.671Z,23.33
2017-09-26T11:00:54.207Z,17.63
2017-09-26T11:03:21.788Z,23.40
2017-09-26T11:05:49.317Z,21.07
2017-09-26T11:08:17.624Z,20.83
2017-09-26T11:10:45.191Z,15.07
2017-09-26T11:13:12.734Z,20.20
2017-09-26T11:15:40.270Z,22.90
2017-09-26T11:18:08.653Z,18.40
2017-09-26T11:20:36.648Z,17.80
2017-09-26T11:23:04.417Z,18.27
2017-09-26T11:25:31.979Z,18.10
2017-09-26T11:28:00.489Z,18.30
2017-09-26T11:30:29.004Z,22.27
2017-09-26T11:32:56.885Z,21.33
2017-09-26T11:35:24.672Z,19.80
2017-09-26T11:37:53.380Z,20.17
2017-09-26T11:40:20.950Z,19.00
2017-09-26T11:42:48.490Z,17.50
2017-09-26T11:45:16.039Z,24.00
2017-09-26T11:47:43.627Z,19.43
2017-09-26T11:50:11.167Z,13.77
2017-09-26T11:52:38.703Z,16.23
2017-09-26T11:55:06.252Z,13.23
2017-09-26T11:57:34.136Z,13.50
2017-09-26T12:00:02.501Z,15.90
2017-09-26T12:02:30.061Z,12.43
2017-09-26T12:04:57.589Z,12.50
2017-09-26T12:07:25.108Z,13.60
2017-09-26T12:09:52.691Z,13.00
2017-09-26T12:12:20.220Z,16.83
2017-09-26T12:14:47.763Z,12.67
2017-09-26T12:17:16.123Z,13.10
2017-09-26T12:19:43.791Z,13.50
2017-09-26T12:22:12.090Z,11.83
2017-09-26T12:24:39.736Z,14.00
2017-09-26T12:27:08.619Z,13.87
2017-09-26T12:29:36.152Z,14.43
2017-09-26T12:32:03.718Z,11.43
2017-09-26T12:34:31.940Z,14.03
2017-09-26T12:36:59.483Z,11.77
2017-09-26T12:39:28.132Z,12.10
2017-09-26T12:41:55.674Z,12.23
2017-09-26T12:44:24.336Z,13.60
2017-09-26T12:46:51.904Z,13.20
2017-09-26T12:49:19.427Z,14.20
2017-09-26T12:51:49.214Z,13.27
2017-09-26T12:54:17.132Z,13.17
2017-09-26T12:56:44.669Z,12.17
2017-09-26T12:59:12.203Z,11.50
2017-09-26T13:01:40.532Z,13.00
2017-09-26T13:04:08.959Z,12.60
2017-09-26T13:06:37.271Z,12.43
2017-09-26T13:09:04.824Z,11.63
2017-09-26T13:11:32.358Z,14.10
2017-09-26T13:14:00.674Z,16.73
2017-09-26T13:16:28.252Z,15.07
2017-09-26T13:18:55.772Z,15.10
2017-09-26T13:21:24.250Z,13.40
2017-09-26T13:23:52.637Z,12.77
2017-09-26T13:26:21.033Z,14.97
2017-09-26T13:28:48.571Z,14.87
2017-09-26T13:31:16.896Z,14.67
2017-09-26T13:33:44.412Z,14.30
2017-09-26T13:36:11.964Z,14.60
2017-09-26T13:38:40.270Z,12.23
2017-09-26T13:41:07.808Z,10.77
2017-09-26T13:43:35.350Z,15.67
2017-09-26T13:46:03.768Z,14.17
2017-09-26T13:48:31.300Z,17.20
2017-09-26T13:50:59.907Z,11.30
2017-09-26T13:53:29.622Z,12.50
2017-09-26T13:55:57.183Z,13.47
2017-09-26T13:58:25.216Z,16.03
2017-09-26T14:00:53.370Z,13.70
2017-09-26T14:03:20.892Z,12.50
2017-09-26T14:05:50.802Z,13.33
2017-09-26T14:08:18.418Z,11.47
2017-09-26T14:10:46.716Z,12.47
2017-09-26T14:13:14.264Z,14.90
2017-09-26T14:15:42.792Z,9.70
2017-09-26T14:18:10.439Z,11.80
2017-09-26T14:20:37.951Z,12.70
2017-09-26T14:23:05.526Z,15.03
2017-09-26T14:25:33.846Z,12.40
2017-09-26T14:28:01.421Z,12.30
2017-09-26T14:30:29.003Z,11.53
2017-09-26T14:32:56.526Z,12.43
2017-09-26T14:35:24.059Z,13.73
2017-09-26T14:37:51.640Z,12.57
2017-09-26T14:40:19.335Z,13.50
2017-09-26T14:42:47.713Z,13.73
2017-09-26T14:45:17.450Z,17.50
2017-09-26T14:47:45.961Z,15.60
2017-09-26T14:50:13.561Z,13.50
2017-09-26T14:52:42.228Z,19.03
2017-09-26T14:55:09.792Z,14.40
2017-09-26T14:57:37.426Z,13.60
2017-09-26T15:00:05.890Z,14.10
2017-09-26T15:02:33.533Z,14.20
2017-09-26T15:05:02.624Z,13.03
2017-09-26T15:07:31.119Z,15.00
2017-09-26T15:09:58.727Z,16.03
2017-09-26T15:12:26.277Z,13.73
2017-09-26T15:14:53.954Z,15.37
2017-09-26T15:17:21.785Z,12.13
2017-09-26T15:19:51.443Z,11.47
2017-09-26T15:22:19.619Z,13.60
2017-09-26T15:24:47.343Z,17.20
2017-09-26T15:27:15.107Z,12.80
2017-09-26T15:29:42.847Z,12.50
2017-09-26T15:32:11.467Z,15.27
2017-09-26T15:34:39.239Z,14.27
2017-09-26T15:37:07.088Z,17.07
2017-09-26T15:39:35.161Z,15.50
2017-09-26T15:42:03.797Z,14.63
2017-09-26T15:44:31.955Z,14.77
2017-09-26T15:47:00.483Z,17.03
2017-09-26T15:49:29.409Z,15.83
2017-09-26T15:51:57.483Z,23.07
2017-09-26T15:54:26.780Z,12.83
2017-09-26T15:56:54.687Z,16.40
2017-09-26T15:59:22.541Z,14.37
2017-09-26T16:01:51.216Z,13.50
2017-09-26T16:04:19.884Z,13.90
2017-09-26T16:06:47.979Z,14.63
2017-09-26T16:09:15.828Z,29.83
2017-09-26T16:11:43.494Z,13.80
2017-09-26T16:14:11.144Z,35.23
2017-09-26T16:16:38.842Z,9.80
2017-09-26T16:19:06.475Z,8.43
2017-09-26T16:21:34.571Z,14.80
2017-09-26T16:24:02.167Z,13.23
2017-09-26T16:26:30.461Z,11.17
2017-09-26T16:28:58.043Z,11.80
2017-09-26T16:31:25.991Z,11.10
2017-09-26T16:33:53.628Z,10.83
2017-09-26T16:36:21.952Z,12.30
2017-09-26T16:38:49.512Z,20.03
2017-09-26T16:41:17.074Z,12.50
2017-09-26T16:43:45.530Z,13.73
2017-09-26T16:46:13.176Z,18.87
2017-09-26T16:48:41.517Z,14.53
2017-09-26T16:51:09.155Z,18.50
2017-09-26T16:53:37.538Z,23.67
2017-09-26T16:56:05.099Z,14.73
2017-09-26T16:58:32.624Z,50.00
2017-09-26T17:01:00.946Z,17.63
2017-09-26T17:03:28.522Z,22.97
2017-09-26T17:05:56.083Z,22.00
2017-09-26T17:08:23.610Z,17.77
2017-09-26T17:10:51.273Z,15.37
2017-09-26T17:13:18.808Z,15.40
2017-09-26T17:15:46.345Z,13.67
2017-09-26T17:18:14.879Z,19.73
2017-09-26T17:20:42.404Z,29.47
2017-09-26T17:23:10.917Z,33.20
2017-09-26T17:25:38.488Z,17.37
2017-09-26T17:28:06.007Z,21.97
2017-09-26T17:30:33.548Z,17.50
2017-09-26T17:33:01.884Z,29.03
2017-09-26T17:35:29.758Z,29.17
2017-09-26T17:37:57.574Z,17.90
2017-09-26T17:40:25.901Z,20.70
2017-09-26T17:42:53.447Z,28.83
2017-09-26T17:45:20.976Z,27.43
2017-09-26T17:47:48.517Z,42.00
2017-09-26T17:50:16.870Z,18.17
2017-09-26T17:52:45.342Z,19.97
2017-09-26T17:55:13.494Z,23.57
2017-09-26T17:57:41.057Z,18.50
2017-09-26T18:00:08.603Z,23.07
2017-09-26T18:02:36.267Z,25.67
2017-09-26T18:05:04.007Z,24.87
2017-09-26T18:07:31.762Z,23.57
2017-09-26T18:09:59.552Z,25.43
2017-09-26T18:12:27.238Z,24.63
2017-09-26T18:14:54.776Z,23.80
2017-09-26T18:17:22.421Z,30.20
2017-09-26T18:19:50.005Z,27.30
2017-09-26T18:22:17.587Z,25.63
2017-09-26T18:24:45.190Z,29.57
2017-09-26T18:27:12.804Z,18.97
2017-09-26T18:29:40.350Z,21.70
2017-09-26T18:32:08.744Z,24.03
2017-09-26T18:34:36.440Z,34.67
2017-09-26T18:37:04.898Z,33.37
2017-09-26T18:39:32.496Z,26.27
2017-09-26T18:42:00.839Z,37.17
2017-09-26T18:44:29.187Z,35.77
2017-09-26T18:46:56.770Z,39.17
2017-09-26T18:49:24.439Z,45.20
2017-09-26T18:51:52.245Z,43.40
2017-09-26T18:54:20.585Z,51.63
2017-09-26T18:56:48.132Z,57.10
2017-09-26T18:59:15.699Z,54.50
2017-09-26T19:01:43.239Z,60.30
2017-09-26T19:04:10.802Z,60.12
2017-09-26T19:06:38.357Z,70.07
2017-09-26T19:09:05.885Z,67.53
2017-09-26T19:11:35.218Z,76.07
2017-09-26T19:14:02.867Z,71.43
2017-09-26T19:16:30.405Z,78.57
2017-09-26T19:18:59.046Z,79.10
2017-09-26T19:21:26.688Z,76.67
2017-09-26T19:23:54.218Z,74.10
2017-09-26T19:26:21.879Z,81.43
2017-09-26T19:28:49.452Z,72.47
2017-09-26T19:31:16.976Z,84.93
2017-09-26T19:33:44.767Z,81.77
2017-09-26T19:36:13.155Z,81.30
2017-09-26T19:38:42.659Z,78.70
2017-09-26T19:41:10.211Z,81.07
2017-09-26T19:43:37.793Z,79.30
2017-09-26T19:46:05.320Z,82.00
2017-09-26T19:48:33.720Z,80.25
2017-09-26T19:51:01.708Z,81.97
2017-09-26T19:53:29.264Z,82.43
2017-09-26T19:55:57.353Z,85.77
2017-09-26T19:58:25.700Z,97.47
2017-09-26T20:00:54.635Z,103.50
2017-09-26T20:03:25.821Z,89.87
2017-09-26T20:05:54.153Z,87.17
2017-09-26T20:08:21.714Z,81.63
2017-09-26T20:10:49.292Z,98.00
2017-09-26T20:13:16.821Z,91.87
2017-09-26T20:15:44.940Z,78.47
2017-09-26T20:18:13.360Z,58.80
2017-09-26T20:20:40.936Z,35.47
2017-09-26T20:23:08.991Z,22.63
2017-09-26T20:25:36.593Z,16.17
2017-09-26T20:28:04.483Z,9.40
2017-09-26T20:30:32.074Z,6.33
2017-09-26T20:32:59.624Z,4.07
2017-09-26T20:35:27.157Z,2.50
2017-09-26T20:37:55.452Z,2.10
2017-09-26T20:40:23.015Z,1.90
2017-09-26T20:42:51.089Z,1.40
2017-09-26T20:45:18.615Z,1.50
2017-09-26T20:47:46.178Z,1.20
2017-09-26T20:50:15.732Z,1.00
2017-09-26T20:52:44.271Z,0.90
2017-09-26T20:55:17.436Z,0.90
2017-09-26T20:57:47.129Z,0.90
2017-09-26T21:00:14.660Z,0.80
2017-09-26T21:02:43.457Z,0.70
2017-09-26T21:05:21.917Z,0.70
2017-09-26T21:07:49.546Z,0.70
2017-09-26T21:10:17.138Z,0.70
2017-09-26T21:12:45.039Z,0.80
2017-09-26T21:18:04.944Z,0.70
2017-09-26T21:20:35.573Z,0.70
2017-09-26T21:23:04.395Z,0.70
2017-09-26T21:25:32.755Z,19.30
2017-09-26T21:28:01.090Z,34.27
2017-09-26T21:30:29.630Z,37.37
2017-09-26T21:32:58.367Z,31.70
2017-09-26T21:35:27.603Z,45.77
2017-09-26T21:37:56.198Z,39.87
2017-09-26T21:40:41.968Z,46.33
2017-09-26T21:43:19.612Z,42.50
2017-09-26T21:45:48.075Z,52.73
2017-09-26T21:48:16.592Z,39.73
2017-09-26T21:50:45.889Z,52.13
2017-09-26T21:53:15.478Z,67.93
2017-09-26T21:55:45.397Z,51.83
2017-09-26T21:58:22.401Z,57.57
2017-09-26T22:00:56.229Z,44.70
2017-09-26T22:03:29.213Z,60.00
2017-09-26T22:05:58.309Z,44.80
2017-09-26T22:08:28.560Z,49.50
2017-09-26T22:11:00.103Z,46.73
2017-09-26T22:13:30.224Z,45.80
2017-09-26T22:16:07.863Z,57.63
2017-09-26T22:18:37.436Z,54.67
2017-09-26T22:21:06.681Z,57.50
2017-09-26T22:23:35.963Z,56.33
2017-09-26T22:26:05.902Z,75.57
2017-09-26T22:28:34.948Z,58.70
2017-09-26T22:31:02.508Z,41.80
2017-09-26T22:33:30.086Z,44.10
2017-09-26T22:35:57.624Z,35.70
2017-09-26T22:38:25.147Z,33.30
2017-09-26T22:40:53.464Z,41.53
2017-09-26T22:43:21.073Z,47.73
2017-09-26T22:45:48.651Z,56.13
2017-09-26T22:48:17.055Z,65.97
2017-09-26T22:50:44.584Z,60.83
2017-09-26T22:53:12.912Z,92.43
2017-09-26T22:55:40.507Z,86.67
2017-09-26T22:58:08.827Z,84.00
2017-09-26T23:03:10.945Z,88.93
2017-09-26T23:05:38.712Z,88.97
2017-09-26T23:08:06.329Z,87.97
2017-09-26T23:10:33.915Z,87.53
2017-09-26T23:13:01.456Z,62.30
2017-09-26T23:15:28.993Z,84.60
2017-09-26T23:17:56.796Z,78.30
2017-09-26T23:20:25.144Z,70.53
2017-09-26T23:22:52.687Z,83.10
2017-09-26T23:25:21.019Z,64.63
2017-09-26T23:27:48.596Z,57.80
2017-09-26T23:30:16.952Z,60.33
2017-09-26T23:32:44.580Z,70.60
2017-09-26T23:35:13.113Z,61.03
2017-09-26T23:37:41.196Z,57.50
2017-09-26T23:40:09.397Z,59.03
2017-09-26T23:42:36.971Z,52.80
2017-09-26T23:45:04.515Z,50.83
2017-09-26T23:47:32.843Z,87.97
2017-09-26T23:50:00.374Z,60.70
2017-09-26T23:52:27.919Z,82.30
2017-09-26T23:54:57.172Z,107.73
2017-09-26T23:57:24.835Z,110.40
2017-09-26T23:59:53.148Z,136.83
